< < Back
Terminal Aerodrome Forecast


Current Version              Previous Versions:   1  2  3  4  5  6  7  8  9  

Terminal Aerodrome Forecast

344
FTUS44 KHUN 051529 AAB
TAFHSV
TAF AMD
KHSV 051529Z 0515/0612 36012G20KT 3SM -PL OVC015
      TEMPO 0518/0520 3SM -PLSN OVC010
     FM052000 36012G18KT P6SM OVC020
     FM060800 36010KT P6SM OVC050=

Latest METAR

091
SAUS80 KWBC 060000 RRD
MTRHSV
METAR KHSV 052353Z 01015G20KT 10SM BKN021 M03/M07 A3044 RMK AO2 SLP314
T10281072 11017 21028 53026


USA.gov is the U.S. government's official web portal to all federal, state and local government web resources and services.